sensor_id;sensor_type;location;lat;lon;timestamp;pressure;altitude;pressure_sealevel;temperature;humidity
40708;BME280;26392;42.696;23.350;2023-03-01T00:00:40;95786.97;;;6.64;100.00
40708;BME280;26392;42.696;23.350;2023-03-01T00:03:05;95796.72;;;6.65;100.00
40708;BME280;26392;42.696;23.350;2023-03-01T00:05:31;95788.63;;;6.65;100.00
40708;BME280;26392;42.696;23.350;2023-03-01T00:07:57;95787.66;;;6.53;100.00
40708;BME280;26392;42.696;23.350;2023-03-01T00:10:22;95789.13;;;6.48;100.00
40708;BME280;26392;42.696;23.350;2023-03-01T00:12:48;95788.06;;;6.49;100.00
40708;BME280;26392;42.696;23.350;2023-03-01T00:15:13;95786.59;;;6.54;100.00
40708;BME280;26392;42.696;23.350;2023-03-01T00:17:39;95787.47;;;6.47;100.00
40708;BME280;26392;42.696;23.350;2023-03-01T00:20:04;95781.00;;;6.48;100.00
40708;BME280;26392;42.696;23.350;2023-03-01T00:22:35;95775.13;;;6.58;100.00
40708;BME280;26392;42.696;23.350;2023-03-01T00:25:01;95773.06;;;6.54;100.00
40708;BME280;26392;42.696;23.350;2023-03-01T00:27:26;95769.13;;;6.49;100.00
40708;BME280;26392;42.696;23.350;2023-03-01T00:29:52;95775.41;;;6.43;100.00
40708;BME280;26392;42.696;23.350;2023-03-01T00:32:35;95759.00;;;6.38;100.00
40708;BME280;26392;42.696;23.350;2023-03-01T00:35:01;95763.59;;;6.38;100.00
40708;BME280;26392;42.696;23.350;2023-03-01T00:37:26;95760.00;;;6.44;100.00
40708;BME280;26392;42.696;23.350;2023-03-01T00:39:52;95757.78;;;6.34;100.00
40708;BME280;26392;42.696;23.350;2023-03-01T00:42:17;95747.56;;;6.36;100.00
40708;BME280;26392;42.696;23.350;2023-03-01T00:44:42;95744.44;;;6.39;100.00
40708;BME280;26392;42.696;23.350;2023-03-01T00:47:08;95731.16;;;6.31;100.00
40708;BME280;26392;42.696;23.350;2023-03-01T00:49:34;95746.72;;;6.36;100.00
40708;BME280;26392;42.696;23.350;2023-03-01T00:51:59;95752.19;;;6.29;100.00
40708;BME280;26392;42.696;23.350;2023-03-01T00:54:25;95759.47;;;6.28;100.00
40708;BME280;26392;42.696;23.350;2023-03-01T00:56:50;95752.00;;;6.31;100.00
40708;BME280;26392;42.696;23.350;2023-03-01T00:59:15;95746.78;;;6.29;100.00
40708;BME280;26392;42.696;23.350;2023-03-01T01:01:41;95749.88;;;6.33;100.00
40708;BME280;26392;42.696;23.350;2023-03-01T01:04:09;95743.88;;;6.31;100.00
40708;BME280;26392;42.696;23.350;2023-03-01T01:06:37;95747.34;;;6.38;100.00
40708;BME280;26392;42.696;23.350;2023-03-01T01:09:05;95752.44;;;6.21;100.00
40708;BME280;26392;42.696;23.350;2023-03-01T01:11:31;95756.84;;;6.22;100.00
40708;BME280;26392;42.696;23.350;2023-03-01T01:13:57;95754.72;;;6.24;100.00
40708;BME280;26392;42.696;23.350;2023-03-01T01:16:25;95754.50;;;6.25;100.00
40708;BME280;26392;42.696;23.350;2023-03-01T01:18:51;95754.47;;;6.32;100.00
40708;BME280;26392;42.696;23.350;2023-03-01T01:21:19;95752.19;;;6.29;100.00
40708;BME280;26392;42.696;23.350;2023-03-01T01:23:46;95742.56;;;6.40;100.00
40708;BME280;26392;42.696;23.350;2023-03-01T01:26:15;95740.50;;;6.35;100.00
40708;BME280;26392;42.696;23.350;2023-03-01T01:28:41;95745.44;;;6.45;100.00
40708;BME280;26392;42.696;23.350;2023-03-01T01:31:07;95741.84;;;6.51;100.00
40708;BME280;26392;42.696;23.350;2023-03-01T01:33:33;95738.50;;;6.56;100.00
40708;BME280;26392;42.696;23.350;2023-03-01T01:35:58;95745.50;;;6.63;100.00
40708;BME280;26392;42.696;23.350;2023-03-01T01:38:24;95756.19;;;6.58;100.00
40708;BME280;26392;42.696;23.350;2023-03-01T01:40:50;95757.59;;;6.61;100.00
40708;BME280;26392;42.696;23.350;2023-03-01T01:43:30;95766.94;;;6.65;100.00
40708;BME280;26392;42.696;23.350;2023-03-01T01:48:43;95759.81;;;6.70;100.00
40708;BME280;26392;42.696;23.350;2023-03-01T01:51:14;95750.19;;;6.75;100.00
40708;BME280;26392;42.696;23.350;2023-03-01T01:53:44;95768.34;;;6.74;100.00
40708;BME280;26392;42.696;23.350;2023-03-01T01:56:13;95759.00;;;6.70;100.00
40708;BME280;26392;42.696;23.350;2023-03-01T01:58:39;95757.28;;;6.76;100.00
40708;BME280;26392;42.696;23.350;2023-03-01T02:01:07;95752.25;;;6.79;100.00
40708;BME280;26392;42.696;23.350;2023-03-01T02:03:33;95744.13;;;6.79;100.00
40708;BME280;26392;42.696;23.350;2023-03-01T02:06:38;95742.25;;;6.80;100.00
40708;BME280;26392;42.696;23.350;2023-03-01T02:09:14;95738.59;;;6.67;100.00
40708;BME280;26392;42.696;23.350;2023-03-01T02:11:41;95738.38;;;6.69;100.00
40708;BME280;26392;42.696;23.350;2023-03-01T02:14:07;95741.06;;;6.69;100.00
40708;BME280;26392;42.696;23.350;2023-03-01T02:16:33;95737.78;;;6.67;100.00
40708;BME280;26392;42.696;23.350;2023-03-01T02:18:59;95741.50;;;6.72;100.00
40708;BME280;26392;42.696;23.350;2023-03-01T02:27:13;95727.78;;;6.67;100.00
40708;BME280;26392;42.696;23.350;2023-03-01T02:29:38;95727.22;;;6.59;100.00
40708;BME280;26392;42.696;23.350;2023-03-01T02:32:04;95731.19;;;6.56;100.00
40708;BME280;26392;42.696;23.350;2023-03-01T02:34:31;95738.31;;;6.50;100.00
40708;BME280;26392;42.696;23.350;2023-03-01T02:37:04;95742.28;;;6.48;100.00
40708;BME280;26392;42.696;23.350;2023-03-01T02:39:38;95734.34;;;6.53;100.00
40708;BME280;26392;42.696;23.350;2023-03-01T02:42:13;95743.06;;;6.55;100.00
40708;BME280;26392;42.696;23.350;2023-03-01T02:44:40;95738.25;;;6.57;100.00
40708;BME280;26392;42.696;23.350;2023-03-01T02:47:05;95751.34;;;6.60;100.00
40708;BME280;26392;42.696;23.350;2023-03-01T02:49:33;95743.66;;;6.57;100.00
40708;BME280;26392;42.696;23.350;2023-03-01T02:52:34;95735.09;;;6.60;100.00
40708;BME280;26392;42.696;23.350;2023-03-01T02:55:09;95738.25;;;6.57;100.00
40708;BME280;26392;42.696;23.350;2023-03-01T02:57:38;95735.78;;;6.56;100.00
40708;BME280;26392;42.696;23.350;2023-03-01T03:00:13;95718.31;;;6.52;100.00
40708;BME280;26392;42.696;23.350;2023-03-01T03:02:45;95740.50;;;6.67;100.00
40708;BME280;26392;42.696;23.350;2023-03-01T03:05:46;95738.63;;;6.61;100.00
40708;BME280;26392;42.696;23.350;2023-03-01T03:08:04;95740.75;;;6.59;100.00
40708;BME280;26392;42.696;23.350;2023-03-01T03:10:36;95735.16;;;6.54;100.00
40708;BME280;26392;42.696;23.350;2023-03-01T03:13:10;95734.72;;;6.57;100.00
40708;BME280;26392;42.696;23.350;2023-03-01T03:15:37;95729.09;;;6.58;100.00
40708;BME280;26392;42.696;23.350;2023-03-01T03:18:06;95741.78;;;6.58;100.00
40708;BME280;26392;42.696;23.350;2023-03-01T03:20:32;95749.09;;;6.57;100.00
40708;BME280;26392;42.696;23.350;2023-03-01T03:22:58;95741.78;;;6.58;100.00
40708;BME280;26392;42.696;23.350;2023-03-01T03:25:26;95740.59;;;6.54;100.00
40708;BME280;26392;42.696;23.350;2023-03-01T03:27:52;95736.00;;;6.54;100.00
40708;BME280;26392;42.696;23.350;2023-03-01T03:30:28;95741.84;;;6.51;100.00
40708;BME280;26392;42.696;23.350;2023-03-01T03:32:55;95751.84;;;6.50;100.00
40708;BME280;26392;42.696;23.350;2023-03-01T03:35:25;95745.66;;;6.43;100.00
40708;BME280;26392;42.696;23.350;2023-03-01T03:37:51;95758.59;;;6.35;100.00
40708;BME280;26392;42.696;23.350;2023-03-01T03:40:31;95747.84;;;6.28;100.00
40708;BME280;26392;42.696;23.350;2023-03-01T03:42:57;95745.78;;;6.23;100.00
40708;BME280;26392;42.696;23.350;2023-03-01T03:45:43;95759.53;;;6.22;100.00
40708;BME280;26392;42.696;23.350;2023-03-01T03:48:09;95767.84;;;6.20;100.00
40708;BME280;26392;42.696;23.350;2023-03-01T03:50:35;95759.09;;;6.25;100.00
40708;BME280;26392;42.696;23.350;2023-03-01T03:53:04;95759.88;;;6.32;100.00
40708;BME280;26392;42.696;23.350;2023-03-01T03:55:30;95764.66;;;6.37;100.00
40708;BME280;26392;42.696;23.350;2023-03-01T03:57:57;95743.88;;;6.24;100.00
40708;BME280;26392;42.696;23.350;2023-03-01T04:00:25;95763.44;;;6.26;100.00
40708;BME280;26392;42.696;23.350;2023-03-01T04:02:51;95756.38;;;6.25;100.00
40708;BME280;26392;42.696;23.350;2023-03-01T04:05:18;95767.03;;;6.20;100.00
40708;BME280;26392;42.696;23.350;2023-03-01T04:07:45;95762.50;;;6.14;100.00
40708;BME280;26392;42.696;23.350;2023-03-01T04:10:13;95765.78;;;6.16;100.00
40708;BME280;26392;42.696;23.350;2023-03-01T04:12:39;95770.56;;;6.20;100.00
40708;BME280;26392;42.696;23.350;2023-03-01T04:15:07;95763.88;;;6.23;100.00
40708;BME280;26392;42.696;23.350;2023-03-01T04:17:43;95766.16;;;6.26;100.00
40708;BME280;26392;42.696;23.350;2023-03-01T04:20:17;95751.00;;;6.18;100.00
40708;BME280;26392;42.696;23.350;2023-03-01T04:22:43;95761.69;;;6.07;100.00
40708;BME280;26392;42.696;23.350;2023-03-01T04:25:12;95761.25;;;6.10;100.00
40708;BME280;26392;42.696;23.350;2023-03-01T04:27:39;95756.47;;;6.12;100.00
40708;BME280;26392;42.696;23.350;2023-03-01T04:30:05;95768.75;;;6.08;100.00
40708;BME280;26392;42.696;23.350;2023-03-01T04:32:31;95758.34;;;6.04;100.00
40708;BME280;26392;42.696;23.350;2023-03-01T04:34:57;95768.34;;;6.04;100.00
40708;BME280;26392;42.696;23.350;2023-03-01T04:37:22;95770.03;;;5.98;100.00
40708;BME280;26392;42.696;23.350;2023-03-01T04:39:49;95760.91;;;5.99;100.00
40708;BME280;26392;42.696;23.350;2023-03-01T04:42:15;95762.97;;;5.97;100.00
40708;BME280;26392;42.696;23.350;2023-03-01T04:44:42;95760.47;;;5.96;100.00
40708;BME280;26392;42.696;23.350;2023-03-01T04:47:07;95744.69;;;5.99;100.00
40708;BME280;26392;42.696;23.350;2023-03-01T04:49:33;95759.22;;;5.98;100.00
40708;BME280;26392;42.696;23.350;2023-03-01T04:51:58;95739.25;;;5.93;100.00
40708;BME280;26392;42.696;23.350;2023-03-01T04:54:27;95758.41;;;5.84;100.00
40708;BME280;26392;42.696;23.350;2023-03-01T04:56:53;95753.44;;;5.88;100.00
40708;BME280;26392;42.696;23.350;2023-03-01T04:59:19;95742.00;;;5.86;100.00
40708;BME280;26392;42.696;23.350;2023-03-01T05:01:50;95756.72;;;5.90;100.00
40708;BME280;26392;42.696;23.350;2023-03-01T05:04:16;95748.84;;;5.89;100.00
40708;BME280;26392;42.696;23.350;2023-03-01T05:06:42;95756.34;;;5.93;100.00
40708;BME280;26392;42.696;23.350;2023-03-01T05:09:08;95754.63;;;5.99;100.00
40708;BME280;26392;42.696;23.350;2023-03-01T05:11:33;95751.91;;;6.05;100.00
40708;BME280;26392;42.696;23.350;2023-03-01T05:14:05;95753.81;;;6.05;100.00
40708;BME280;26392;42.696;23.350;2023-03-01T05:16:31;95752.50;;;6.08;100.00
40708;BME280;26392;42.696;23.350;2023-03-01T05:18:57;95761.63;;;6.13;100.00
40708;BME280;26392;42.696;23.350;2023-03-01T05:21:23;95763.19;;;5.89;100.00
40708;BME280;26392;42.696;23.350;2023-03-01T05:23:48;95743.25;;;5.83;100.00
40708;BME280;26392;42.696;23.350;2023-03-01T05:26:16;95764.19;;;6.01;100.00
40708;BME280;26392;42.696;23.350;2023-03-01T05:28:42;95760.66;;;6.01;100.00
40708;BME280;26392;42.696;23.350;2023-03-01T05:31:08;95762.13;;;6.03;100.00
40708;BME280;26392;42.696;23.350;2023-03-01T05:33:38;95765.34;;;6.19;100.00
40708;BME280;26392;42.696;23.350;2023-03-01T05:36:05;95763.28;;;6.21;100.00
40708;BME280;26392;42.696;23.350;2023-03-01T05:38:31;95756.97;;;6.27;100.00
40708;BME280;26392;42.696;23.350;2023-03-01T05:40:57;95767.03;;;6.20;100.00
40708;BME280;26392;42.696;23.350;2023-03-01T05:43:22;95766.22;;;6.19;100.00
40708;BME280;26392;42.696;23.350;2023-03-01T05:45:47;95779.31;;;6.22;100.00
40708;BME280;26392;42.696;23.350;2023-03-01T05:48:13;95774.47;;;6.24;100.00
40708;BME280;26392;42.696;23.350;2023-03-01T05:50:43;95777.59;;;6.28;100.00
40708;BME280;26392;42.696;23.350;2023-03-01T05:53:12;95771.63;;;6.13;100.00
40708;BME280;26392;42.696;23.350;2023-03-01T05:55:38;95772.50;;;6.07;100.00
40708;BME280;26392;42.696;23.350;2023-03-01T05:58:06;95790.13;;;6.16;100.00
40708;BME280;26392;42.696;23.350;2023-03-01T06:00:33;95781.06;;;6.03;100.00
40708;BME280;26392;42.696;23.350;2023-03-01T06:02:59;95778.75;;;6.07;100.00
40708;BME280;26392;42.696;23.350;2023-03-01T06:05:26;95787.44;;;6.16;100.00
40708;BME280;26392;42.696;23.350;2023-03-01T06:07:51;95795.72;;;6.21;100.00
40708;BME280;26392;42.696;23.350;2023-03-01T06:10:19;95785.72;;;6.28;100.00
40708;BME280;26392;42.696;23.350;2023-03-01T06:12:45;95794.16;;;6.45;100.00
40708;BME280;26392;42.696;23.350;2023-03-01T06:15:13;95801.03;;;6.41;100.00
40708;BME280;26392;42.696;23.350;2023-03-01T06:17:40;95801.09;;;6.34;100.00
40708;BME280;26392;42.696;23.350;2023-03-01T06:20:09;95805.63;;;6.40;100.00
40708;BME280;26392;42.696;23.350;2023-03-01T06:22:35;95801.91;;;6.41;100.00
40708;BME280;26392;42.696;23.350;2023-03-01T06:25:01;95808.25;;;6.54;100.00
40708;BME280;26392;42.696;23.350;2023-03-01T06:27:26;95798.88;;;6.56;100.00
40708;BME280;26392;42.696;23.350;2023-03-01T06:29:52;95814.03;;;6.64;100.00
40708;BME280;26392;42.696;23.350;2023-03-01T06:32:17;95808.19;;;6.67;100.00
40708;BME280;26392;42.696;23.350;2023-03-01T06:34:43;95812.34;;;6.69;100.00
40708;BME280;26392;42.696;23.350;2023-03-01T06:37:08;95799.22;;;6.66;100.00
40708;BME280;26392;42.696;23.350;2023-03-01T06:39:34;95803.53;;;6.74;100.00
40708;BME280;26392;42.696;23.350;2023-03-01T06:41:59;95802.66;;;6.80;100.00
40708;BME280;26392;42.696;23.350;2023-03-01T06:44:25;95809.88;;;6.93;100.00
40708;BME280;26392;42.696;23.350;2023-03-01T06:46:50;95804.66;;;6.91;100.00
40708;BME280;26392;42.696;23.350;2023-03-01T06:49:16;95802.69;;;7.05;100.00
40708;BME280;26392;42.696;23.350;2023-03-01T06:51:43;95799.91;;;6.87;100.00
40708;BME280;26392;42.696;23.350;2023-03-01T06:54:09;95806.28;;;6.99;100.00
40708;BME280;26392;42.696;23.350;2023-03-01T06:56:35;95791.13;;;6.91;100.00
40708;BME280;26392;42.696;23.350;2023-03-01T06:59:01;95800.69;;;6.94;100.00
40708;BME280;26392;42.696;23.350;2023-03-01T07:01:28;95802.75;;;6.99;100.00
40708;BME280;26392;42.696;23.350;2023-03-01T07:03:53;95816.91;;;7.01;100.00
40708;BME280;26392;42.696;23.350;2023-03-01T07:06:18;95814.13;;;7.07;100.00
40708;BME280;26392;42.696;23.350;2023-03-01T07:08:44;95812.84;;;7.10;100.00
40708;BME280;26392;42.696;23.350;2023-03-01T07:11:10;95810.94;;;7.17;100.00
40708;BME280;26392;42.696;23.350;2023-03-01T07:13:35;95804.78;;;7.03;100.00
40708;BME280;26392;42.696;23.350;2023-03-01T07:16:00;95804.56;;;7.05;100.00
40708;BME280;26392;42.696;23.350;2023-03-01T07:18:26;95805.00;;;7.02;100.00
40708;BME280;26392;42.696;23.350;2023-03-01T07:20:52;95815.78;;;7.08;100.00
40708;BME280;26392;42.696;23.350;2023-03-01T07:23:17;95807.06;;;7.06;100.00
40708;BME280;26392;42.696;23.350;2023-03-01T07:25:42;95805.00;;;7.02;100.00
40708;BME280;26392;42.696;23.350;2023-03-01T07:28:08;95801.13;;;7.16;100.00
40708;BME280;26392;42.696;23.350;2023-03-01T07:30:33;95804.34;;;7.31;100.00
40708;BME280;26392;42.696;23.350;2023-03-01T07:32:59;95796.91;;;7.45;100.00
40708;BME280;26392;42.696;23.350;2023-03-01T07:35:26;95793.72;;;7.30;100.00
40708;BME280;26392;42.696;23.350;2023-03-01T07:37:52;95797.75;;;7.46;100.00
40708;BME280;26392;42.696;23.350;2023-03-01T07:40:18;95785.75;;;7.53;100.00
40708;BME280;26392;42.696;23.350;2023-03-01T07:42:44;95785.88;;;7.65;100.00
40708;BME280;26392;42.696;23.350;2023-03-01T07:45:10;95786.00;;;7.89;100.00
40708;BME280;26392;42.696;23.350;2023-03-01T07:47:35;95796.16;;;8.12;100.00
40708;BME280;26392;42.696;23.350;2023-03-01T07:50:01;95785.16;;;8.06;100.00
40708;BME280;26392;42.696;23.350;2023-03-01T07:52:26;95790.09;;;8.28;100.00
40708;BME280;26392;42.696;23.350;2023-03-01T07:54:52;95780.28;;;8.45;100.00
40708;BME280;26392;42.696;23.350;2023-03-01T07:57:17;95781.84;;;8.83;100.00
40708;BME280;26392;42.696;23.350;2023-03-01T07:59:43;95774.53;;;8.95;100.00
40708;BME280;26392;42.696;23.350;2023-03-01T08:02:10;95765.44;;;8.60;100.00
40708;BME280;26392;42.696;23.350;2023-03-01T08:04:35;95761.78;;;8.54;100.00
40708;BME280;26392;42.696;23.350;2023-03-01T08:07:01;95775.94;;;8.44;100.00
40708;BME280;26392;42.696;23.350;2023-03-01T08:09:26;95762.19;;;8.69;100.00
40708;BME280;26392;42.696;23.350;2023-03-01T08:11:52;95755.97;;;8.81;100.00
40708;BME280;26392;42.696;23.350;2023-03-01T08:14:17;95769.56;;;8.92;100.00
40708;BME280;26392;42.696;23.350;2023-03-01T08:16:43;95762.09;;;8.76;100.00
40708;BME280;26392;42.696;23.350;2023-03-01T08:19:11;95765.38;;;8.66;100.00
40708;BME280;26392;42.696;23.350;2023-03-01T08:21:37;95767.50;;;8.76;100.00
40708;BME280;26392;42.696;23.350;2023-03-01T08:24:04;95761.44;;;8.62;100.00
40708;BME280;26392;42.696;23.350;2023-03-01T08:26:31;95765.03;;;8.74;100.00
40708;BME280;26392;42.696;23.350;2023-03-01T08:28:57;95761.66;;;8.91;100.00
40708;BME280;26392;42.696;23.350;2023-03-01T08:31:28;95759.09;;;9.08;100.00
40708;BME280;26392;42.696;23.350;2023-03-01T08:33:58;95743.66;;;8.78;100.00
40708;BME280;26392;42.696;23.350;2023-03-01T08:36:25;95766.31;;;8.60;100.00
40708;BME280;26392;42.696;23.350;2023-03-01T08:38:51;95767.69;;;8.51;100.00
40708;BME280;26392;42.696;23.350;2023-03-01T08:41:18;95758.84;;;8.56;100.00
40708;BME280;26392;42.696;23.350;2023-03-01T08:43:44;95758.25;;;8.65;100.00
40708;BME280;26392;42.696;23.350;2023-03-01T08:46:10;95761.09;;;8.59;100.00
40708;BME280;26392;42.696;23.350;2023-03-01T08:48:36;95758.81;;;8.86;100.00
40708;BME280;26392;42.696;23.350;2023-03-01T08:51:16;95769.91;;;8.96;100.00
40708;BME280;26392;42.696;23.350;2023-03-01T08:53:42;95755.66;;;9.36;100.00
40708;BME280;26392;42.696;23.350;2023-03-01T08:56:08;95760.13;;;9.54;100.00
40708;BME280;26392;42.696;23.350;2023-03-01T08:58:34;95746.75;;;9.76;100.00
40708;BME280;26392;42.696;23.350;2023-03-01T09:00:59;95763.78;;;9.71;100.00
40708;BME280;26392;42.696;23.350;2023-03-01T09:03:25;95772.22;;;10.10;100.00
40708;BME280;26392;42.696;23.350;2023-03-01T09:05:51;95749.91;;;10.25;100.00
40708;BME280;26392;42.696;23.350;2023-03-01T09:08:18;95768.53;;;10.16;100.00
40708;BME280;26392;42.696;23.350;2023-03-01T09:10:44;95760.47;;;10.21;97.54
40708;BME280;26392;42.696;23.350;2023-03-01T09:13:09;95765.25;;;10.55;95.21
40708;BME280;26392;42.696;23.350;2023-03-01T09:15:38;95764.69;;;10.69;92.10
40708;BME280;26392;42.696;23.350;2023-03-01T09:18:04;95766.16;;;10.32;92.64
40708;BME280;26392;42.696;23.350;2023-03-01T09:20:30;95763.47;;;10.20;92.64
40708;BME280;26392;42.696;23.350;2023-03-01T09:22:56;95762.72;;;9.84;96.21
40708;BME280;26392;42.696;23.350;2023-03-01T09:25:22;95765.94;;;9.57;98.43
40708;BME280;26392;42.696;23.350;2023-03-01T09:27:51;95754.94;;;9.40;99.09
40708;BME280;26392;42.696;23.350;2023-03-01T09:30:16;95762.28;;;9.63;98.47
40708;BME280;26392;42.696;23.350;2023-03-01T09:32:42;95758.38;;;9.59;97.03
40708;BME280;26392;42.696;23.350;2023-03-01T09:35:10;95757.56;;;9.35;100.00
40708;BME280;26392;42.696;23.350;2023-03-01T09:37:36;95756.84;;;9.40;100.00
40708;BME280;26392;42.696;23.350;2023-03-01T09:40:04;95759.69;;;9.22;100.00
40708;BME280;26392;42.696;23.350;2023-03-01T09:42:33;95755.28;;;9.32;100.00
40708;BME280;26392;42.696;23.350;2023-03-01T09:45:06;95755.06;;;9.34;100.00
40708;BME280;26392;42.696;23.350;2023-03-01T09:47:36;95742.19;;;9.41;100.00
40708;BME280;26392;42.696;23.350;2023-03-01T09:50:17;95740.97;;;9.60;100.00
40708;BME280;26392;42.696;23.350;2023-03-01T09:52:47;95748.09;;;9.26;100.00
40708;BME280;26392;42.696;23.350;2023-03-01T09:55:26;95742.38;;;9.63;99.62
40708;BME280;26392;42.696;23.350;2023-03-01T09:58:00;95732.69;;;9.67;96.22
40708;BME280;26392;42.696;23.350;2023-03-01T10:00:43;95728.38;;;9.83;95.17
40708;BME280;26392;42.696;23.350;2023-03-01T10:03:39;95726.53;;;10.12;92.89
40708;BME280;26392;42.696;23.350;2023-03-01T10:06:08;95729.56;;;10.39;89.73
40708;BME280;26392;42.696;23.350;2023-03-01T10:08:49;95720.47;;;9.81;91.91
40708;BME280;26392;42.696;23.350;2023-03-01T10:11:21;95718.97;;;10.02;92.60
40708;BME280;26392;42.696;23.350;2023-03-01T10:14:04;95724.91;;;10.11;91.75
40708;BME280;26392;42.696;23.350;2023-03-01T10:16:47;95716.66;;;9.94;90.99
40708;BME280;26392;42.696;23.350;2023-03-01T10:19:33;95726.78;;;10.11;92.04
40708;BME280;26392;42.696;23.350;2023-03-01T10:22:15;95718.47;;;10.29;90.35
40708;BME280;26392;42.696;23.350;2023-03-01T10:24:41;95714.94;;;10.17;91.09
40708;BME280;26392;42.696;23.350;2023-03-01T10:32:17;95701.97;;;10.36;88.28
40708;BME280;26392;42.696;23.350;2023-03-01T10:34:43;95703.03;;;10.35;88.58
40708;BME280;26392;42.696;23.350;2023-03-01T10:37:15;95702.66;;;10.43;88.16
40708;BME280;26392;42.696;23.350;2023-03-01T10:40:02;95696.94;;;10.44;87.91
40708;BME280;26392;42.696;23.350;2023-03-01T10:42:36;95690.66;;;10.44;87.62
40708;BME280;26392;42.696;23.350;2023-03-01T10:45:35;95698.13;;;10.65;86.11
40708;BME280;26392;42.696;23.350;2023-03-01T10:48:17;95685.06;;;10.34;87.51
40708;BME280;26392;42.696;23.350;2023-03-01T10:51:05;95690.50;;;10.22;87.00
40708;BME280;26392;42.696;23.350;2023-03-01T10:53:37;95692.88;;;10.30;87.52
40708;BME280;26392;42.696;23.350;2023-03-01T10:56:11;95688.09;;;10.37;86.65
40708;BME280;26392;42.696;23.350;2023-03-01T10:58:40;95685.66;;;10.69;85.40
40708;BME280;26392;42.696;23.350;2023-03-01T11:01:27;95692.44;;;10.84;84.28
40708;BME280;26392;42.696;23.350;2023-03-01T11:06:35;95685.91;;;10.68;81.36
40708;BME280;26392;42.696;23.350;2023-03-01T11:09:15;95686.00;;;10.56;84.23
40708;BME280;26392;42.696;23.350;2023-03-01T11:11:41;95694.69;;;10.87;82.46
40708;BME280;26392;42.696;23.350;2023-03-01T11:14:26;95689.78;;;10.26;85.24
40708;BME280;26392;42.696;23.350;2023-03-01T11:16:59;95700.56;;;10.21;87.63
40708;BME280;26392;42.696;23.350;2023-03-01T11:19:25;95698.63;;;10.05;88.08
40708;BME280;26392;42.696;23.350;2023-03-01T11:24:37;95697.03;;;9.92;90.75
40708;BME280;26392;42.696;23.350;2023-03-01T11:27:10;95688.47;;;10.00;91.21
40708;BME280;26392;42.696;23.350;2023-03-01T11:29:54;95700.13;;;9.84;92.22
40708;BME280;26392;42.696;23.350;2023-03-01T11:32:24;95687.38;;;9.73;93.84
40708;BME280;26392;42.696;23.350;2023-03-01T11:35:09;95691.88;;;10.07;92.28
40708;BME280;26392;42.696;23.350;2023-03-01T11:38:03;95679.19;;;10.42;90.25
40708;BME280;26392;42.696;23.350;2023-03-01T11:40:42;95675.94;;;10.73;87.71
40708;BME280;26392;42.696;23.350;2023-03-01T11:46:27;95671.59;;;11.11;83.40
40708;BME280;26392;42.696;23.350;2023-03-01T11:56:45;95637.09;;;11.00;81.60
40708;BME280;26392;42.696;23.350;2023-03-01T12:05:14;95653.34;;;10.44;85.75
40708;BME280;26392;42.696;23.350;2023-03-01T12:11:03;95647.53;;;9.95;91.65
40708;BME280;26392;42.696;23.350;2023-03-01T12:16:40;95635.88;;;10.12;91.53
40708;BME280;26392;42.696;23.350;2023-03-01T12:45:14;95617.16;;;9.58;96.27
40708;BME280;26392;42.696;23.350;2023-03-01T12:50:28;95618.97;;;9.81;95.59
40708;BME280;26392;42.696;23.350;2023-03-01T12:52:58;95614.09;;;10.12;94.31
40708;BME280;26392;42.696;23.350;2023-03-01T12:58:06;95617.25;;;10.20;90.89
40708;BME280;26392;42.696;23.350;2023-03-01T13:00:45;95613.31;;;10.28;90.38
40708;BME280;26392;42.696;23.350;2023-03-01T13:06:40;95606.03;;;10.17;90.52
40708;BME280;26392;42.696;23.350;2023-03-01T13:11:48;95622.91;;;10.19;91.98
40708;BME280;26392;42.696;23.350;2023-03-01T13:16:45;95627.88;;;9.64;98.94
40708;BME280;26392;42.696;23.350;2023-03-01T13:21:46;95621.88;;;10.20;94.90
40708;BME280;26392;42.696;23.350;2023-03-01T13:24:39;95620.16;;;10.30;94.17
40708;BME280;26392;42.696;23.350;2023-03-01T13:32:32;95626.19;;;10.49;91.64
40708;BME280;26392;42.696;23.350;2023-03-01T13:35:03;95624.38;;;10.55;91.72
40708;BME280;26392;42.696;23.350;2023-03-01T13:37:35;95625.47;;;10.71;89.66
40708;BME280;26392;42.696;23.350;2023-03-01T13:42:56;95624.81;;;10.18;93.58
40708;BME280;26392;42.696;23.350;2023-03-01T13:47:54;95620.75;;;10.33;94.49
40708;BME280;26392;42.696;23.350;2023-03-01T13:50:25;95620.59;;;10.39;94.19
40708;BME280;26392;42.696;23.350;2023-03-01T13:52:55;95619.59;;;10.45;93.76
40708;BME280;26392;42.696;23.350;2023-03-01T13:55:38;95624.56;;;10.32;93.79
40708;BME280;26392;42.696;23.350;2023-03-01T14:00:40;95611.75;;;10.03;98.63
40708;BME280;26392;42.696;23.350;2023-03-01T14:03:11;95610.78;;;10.09;97.78
40708;BME280;26392;42.696;23.350;2023-03-01T14:05:37;95613.84;;;10.13;98.58
40708;BME280;26392;42.696;23.350;2023-03-01T14:08:05;95619.53;;;10.12;99.04
40708;BME280;26392;42.696;23.350;2023-03-01T14:13:38;95617.97;;;10.16;99.91
40708;BME280;26392;42.696;23.350;2023-03-01T14:18:47;95606.97;;;10.39;97.42
40708;BME280;26392;42.696;23.350;2023-03-01T14:21:17;95616.13;;;10.33;96.39
40708;BME280;26392;42.696;23.350;2023-03-01T14:23:43;95611.31;;;10.23;97.49
40708;BME280;26392;42.696;23.350;2023-03-01T14:26:09;95607.84;;;10.11;98.35
40708;BME280;26392;42.696;23.350;2023-03-01T14:28:38;95615.50;;;10.14;98.76
40708;BME280;26392;42.696;23.350;2023-03-01T14:31:37;95610.09;;;10.02;100.00
40708;BME280;26392;42.696;23.350;2023-03-01T14:34:03;95602.03;;;10.07;100.00
40708;BME280;26392;42.696;23.350;2023-03-01T14:36:31;95612.44;;;9.82;100.00
40708;BME280;26392;42.696;23.350;2023-03-01T14:38:56;95611.38;;;9.83;100.00
40708;BME280;26392;42.696;23.350;2023-03-01T14:41:33;95605.25;;;9.76;100.00
40708;BME280;26392;42.696;23.350;2023-03-01T14:44:03;95603.84;;;9.45;100.00